createdAt,value
2022-08-27T00:01:25.255Z,0.80
2022-08-27T00:03:55.067Z,0.75
2022-08-27T00:06:24.378Z,0.90
2022-08-27T00:08:52.981Z,0.70
2022-08-27T00:11:22.386Z,0.80
2022-08-27T00:13:50.342Z,0.80
2022-08-27T00:16:18.825Z,0.70
2022-08-27T00:18:48.357Z,1.27
2022-08-27T00:21:17.169Z,0.63
2022-08-27T00:23:45.398Z,0.82
2022-08-27T00:26:13.156Z,0.98
2022-08-27T00:28:41.661Z,0.65
2022-08-27T00:31:12.116Z,1.17
2022-08-27T00:33:40.466Z,0.60
2022-08-27T00:36:08.728Z,0.50
2022-08-27T00:38:38.444Z,0.90
2022-08-27T00:41:08.697Z,0.43
2022-08-27T00:43:50.400Z,1.60
2022-08-27T00:46:37.848Z,0.60
2022-08-27T00:49:23.978Z,0.60
2022-08-27T00:51:59.074Z,0.70
2022-08-27T00:54:28.118Z,0.75
2022-08-27T00:56:56.349Z,0.98
2022-08-27T00:59:29.162Z,0.70
2022-08-27T01:02:14.209Z,1.00
2022-08-27T01:04:44.275Z,0.55
2022-08-27T01:07:12.227Z,0.60
2022-08-27T01:09:40.774Z,0.60
2022-08-27T01:12:09.129Z,0.55
2022-08-27T01:14:37.262Z,0.70
2022-08-27T01:17:07.475Z,0.80
2022-08-27T01:19:46.772Z,0.60
2022-08-27T01:22:37.097Z,0.82
2022-08-27T01:25:09.019Z,0.63
2022-08-27T01:27:37.794Z,0.77
2022-08-27T01:30:07.610Z,0.80
2022-08-27T01:32:36.642Z,0.90
2022-08-27T01:35:09.575Z,1.58
2022-08-27T01:37:37.908Z,1.60
2022-08-27T01:40:08.430Z,0.60
2022-08-27T01:42:39.861Z,0.70
2022-08-27T01:45:12.693Z,0.52
2022-08-27T01:47:40.571Z,0.50
2022-08-27T01:50:16.457Z,1.08
2022-08-27T01:52:44.805Z,0.70
2022-08-27T01:55:15.879Z,0.80
2022-08-27T01:57:44.574Z,0.60
2022-08-27T02:00:16.893Z,0.63
2022-08-27T02:02:44.947Z,0.80
2022-08-27T02:05:13.445Z,0.60
2022-08-27T02:07:41.906Z,0.63
2022-08-27T02:10:12.057Z,1.20
2022-08-27T02:12:39.631Z,1.00
2022-08-27T02:15:07.926Z,0.55
2022-08-27T02:17:35.489Z,0.63
2022-08-27T02:20:03.211Z,1.10
2022-08-27T02:22:30.675Z,0.70
2022-08-27T02:24:58.329Z,0.77
2022-08-27T02:27:26.015Z,0.57
2022-08-27T02:29:54.494Z,0.60
2022-08-27T02:32:26.960Z,1.40
2022-08-27T02:35:00.490Z,0.70
2022-08-27T02:37:29.127Z,0.70
2022-08-27T02:39:57.084Z,0.50
2022-08-27T02:42:24.626Z,1.25
2022-08-27T02:44:52.151Z,0.65
2022-08-27T02:47:19.652Z,0.68
2022-08-27T02:49:47.255Z,0.82
2022-08-27T02:52:14.742Z,1.30
2022-08-27T02:54:43.335Z,0.68
2022-08-27T02:57:10.957Z,0.70
2022-08-27T02:59:38.422Z,0.70
2022-08-27T03:02:06.058Z,0.60
2022-08-27T03:04:33.839Z,0.90
2022-08-27T03:07:01.368Z,0.80
2022-08-27T03:09:28.995Z,1.33
2022-08-27T03:11:56.766Z,1.85
2022-08-27T03:14:24.258Z,0.80
2022-08-27T03:16:51.817Z,1.25
2022-08-27T03:19:23.801Z,0.60
2022-08-27T03:21:54.290Z,0.88
2022-08-27T03:24:22.462Z,0.85
2022-08-27T03:26:52.755Z,1.00
2022-08-27T03:29:21.541Z,0.73
2022-08-27T03:31:49.025Z,0.55
2022-08-27T03:34:19.840Z,1.00
2022-08-27T03:36:48.737Z,0.70
2022-08-27T03:39:16.227Z,0.80
2022-08-27T03:41:54.684Z,0.60
2022-08-27T03:44:26.311Z,0.65
2022-08-27T03:46:53.985Z,1.58
2022-08-27T03:49:22.982Z,0.80
2022-08-27T03:51:52.685Z,1.00
2022-08-27T03:54:20.291Z,1.35
2022-08-27T03:56:47.867Z,0.70
2022-08-27T03:59:16.124Z,0.95
2022-08-27T04:01:45.498Z,1.02
2022-08-27T04:04:14.011Z,0.95
2022-08-27T04:06:42.026Z,0.75
2022-08-27T04:09:09.538Z,0.75
2022-08-27T04:11:37.402Z,0.80
2022-08-27T04:14:22.634Z,0.75
2022-08-27T04:16:55.872Z,1.02
2022-08-27T04:19:27.335Z,0.68
2022-08-27T04:24:26.409Z,0.70
2022-08-27T04:26:53.939Z,1.48
2022-08-27T04:29:21.429Z,0.70
2022-08-27T04:31:49.346Z,0.80
2022-08-27T04:34:18.715Z,0.80
2022-08-27T04:36:47.100Z,1.45
2022-08-27T04:39:15.864Z,0.90
2022-08-27T04:41:43.856Z,0.75
2022-08-27T04:44:12.390Z,0.95
2022-08-27T04:46:41.627Z,1.02
2022-08-27T04:49:16.689Z,1.00
2022-08-27T04:51:44.440Z,1.00
2022-08-27T04:54:13.181Z,1.00
2022-08-27T04:56:41.700Z,1.20
2022-08-27T04:59:11.012Z,1.10
2022-08-27T05:01:40.435Z,1.52
2022-08-27T05:04:08.974Z,1.00
2022-08-27T05:06:37.331Z,0.93
2022-08-27T05:09:05.823Z,0.90
2022-08-27T05:11:34.688Z,0.80
2022-08-27T05:14:07.101Z,0.88
2022-08-27T05:16:36.320Z,1.25
2022-08-27T05:19:08.588Z,0.95
2022-08-27T05:24:08.628Z,0.82
2022-08-27T05:26:37.804Z,0.95
2022-08-27T05:29:06.317Z,1.20
2022-08-27T05:31:34.773Z,0.88
2022-08-27T05:34:02.897Z,1.00
2022-08-27T05:36:38.317Z,0.85
2022-08-27T05:39:15.614Z,1.10
2022-08-27T05:41:43.170Z,0.73
2022-08-27T05:44:39.184Z,1.40
2022-08-27T05:46:58.756Z,1.17
2022-08-27T05:49:26.324Z,0.80
2022-08-27T05:51:53.843Z,1.20
2022-08-27T05:54:21.348Z,1.05
2022-08-27T05:56:50.298Z,1.40
2022-08-27T05:59:36.640Z,1.15
2022-08-27T06:02:06.003Z,0.80
2022-08-27T06:04:33.744Z,1.42
2022-08-27T06:07:01.385Z,0.85
2022-08-27T06:09:30.333Z,1.05
2022-08-27T06:12:00.382Z,0.95
2022-08-27T06:14:29.034Z,1.00
2022-08-27T06:16:56.777Z,0.95
2022-08-27T06:19:25.035Z,0.75
2022-08-27T06:22:00.222Z,1.00
2022-08-27T06:24:37.071Z,1.10
2022-08-27T06:27:04.642Z,0.77
2022-08-27T06:29:35.148Z,1.05
2022-08-27T06:32:02.879Z,0.82
2022-08-27T06:34:30.729Z,1.65
2022-08-27T06:36:58.391Z,1.00
2022-08-27T06:39:26.250Z,1.17
2022-08-27T06:41:53.817Z,0.70
2022-08-27T06:44:22.095Z,1.00
2022-08-27T06:46:49.608Z,0.73
2022-08-27T06:49:17.315Z,1.48
2022-08-27T06:51:47.766Z,0.73
2022-08-27T06:54:17.280Z,1.10
2022-08-27T06:56:45.437Z,0.90
2022-08-27T06:59:16.474Z,0.70
2022-08-27T07:01:47.110Z,0.60
2022-08-27T07:04:20.339Z,0.90
2022-08-27T07:06:48.154Z,0.90
2022-08-27T07:09:16.383Z,0.93
2022-08-27T07:11:44.597Z,0.70
2022-08-27T07:14:12.109Z,1.00
2022-08-27T07:16:40.987Z,1.05
2022-08-27T07:19:08.637Z,1.02
2022-08-27T07:21:40.935Z,0.80
2022-08-27T07:24:09.215Z,1.20
2022-08-27T07:26:40.650Z,0.85
2022-08-27T07:29:10.730Z,1.73
2022-08-27T07:31:38.758Z,1.40
2022-08-27T07:34:07.475Z,1.10
2022-08-27T07:36:36.127Z,1.27
2022-08-27T07:39:04.158Z,1.27
2022-08-27T07:41:32.960Z,1.80
2022-08-27T07:44:18.769Z,1.15
2022-08-27T07:46:48.639Z,1.10
2022-08-27T07:49:18.028Z,1.10
2022-08-27T07:51:46.342Z,0.98
2022-08-27T07:54:14.021Z,1.00
2022-08-27T07:56:42.348Z,1.05
2022-08-27T07:59:11.786Z,0.90
2022-08-27T08:01:42.144Z,1.02
2022-08-27T08:04:10.560Z,1.38
2022-08-27T08:06:40.776Z,0.90
2022-08-27T08:09:10.610Z,1.38
2022-08-27T08:11:39.353Z,0.93
2022-08-27T08:14:06.814Z,1.50
2022-08-27T08:16:34.417Z,1.00
2022-08-27T08:19:01.971Z,0.88
2022-08-27T08:21:29.485Z,1.02
2022-08-27T08:23:57.038Z,1.75
2022-08-27T08:26:24.931Z,0.70
2022-08-27T08:28:52.443Z,0.70
2022-08-27T08:31:20.140Z,0.95
2022-08-27T08:33:48.687Z,1.27
2022-08-27T08:36:17.691Z,0.93
2022-08-27T08:38:47.294Z,0.80
2022-08-27T08:41:47.390Z,1.00
2022-08-27T08:44:34.013Z,0.93
2022-08-27T08:47:14.170Z,0.90
2022-08-27T08:50:22.804Z,0.70
2022-08-27T08:53:25.585Z,1.00
2022-08-27T08:55:58.753Z,0.90
2022-08-27T08:58:47.172Z,1.40
2022-08-27T09:01:18.607Z,0.95
2022-08-27T09:03:53.836Z,0.80
2022-08-27T09:06:35.134Z,1.40
2022-08-27T09:09:15.151Z,0.73
2022-08-27T09:11:56.226Z,0.90
2022-08-27T09:14:32.604Z,0.82
2022-08-27T09:17:02.142Z,0.80
2022-08-27T09:19:30.264Z,0.85
2022-08-27T09:22:38.345Z,0.70
2022-08-27T09:25:17.882Z,0.90
2022-08-27T09:27:50.478Z,0.80
2022-08-27T09:30:28.592Z,1.00
2022-08-27T09:33:01.301Z,0.80
2022-08-27T09:35:35.659Z,1.08
2022-08-27T09:38:04.514Z,0.80
2022-08-27T09:40:40.002Z,1.00
2022-08-27T09:43:21.977Z,0.60
2022-08-27T09:46:00.943Z,0.90
2022-08-27T09:48:34.193Z,0.90
2022-08-27T09:51:15.010Z,1.00
2022-08-27T09:53:51.633Z,0.90
2022-08-27T09:56:27.808Z,0.80
2022-08-27T09:59:07.949Z,1.23
2022-08-27T10:01:39.146Z,0.55
2022-08-27T10:04:13.223Z,0.80
2022-08-27T10:06:48.042Z,0.80
2022-08-27T10:09:44.106Z,0.70
2022-08-27T10:12:29.306Z,0.93
2022-08-27T10:15:01.132Z,0.75
2022-08-27T10:17:47.521Z,0.50
2022-08-27T10:20:30.558Z,0.70
2022-08-27T10:23:13.601Z,0.75
2022-08-27T10:26:15.758Z,0.50
2022-08-27T10:28:46.031Z,0.75
2022-08-27T10:31:25.186Z,0.60
2022-08-27T10:33:59.575Z,0.60
2022-08-27T10:36:35.753Z,0.80
2022-08-27T10:39:46.949Z,0.80
2022-08-27T10:42:46.513Z,0.75
2022-08-27T10:45:30.579Z,0.57
2022-08-27T10:48:03.054Z,0.98
2022-08-27T10:51:01.910Z,0.60
2022-08-27T10:53:55.599Z,0.50
2022-08-27T10:56:34.034Z,0.77
2022-08-27T10:59:33.324Z,0.45
2022-08-27T11:02:20.798Z,0.60
2022-08-27T11:04:54.538Z,0.60
2022-08-27T11:07:31.672Z,0.43
2022-08-27T11:10:18.483Z,0.70
2022-08-27T11:12:51.417Z,0.50
2022-08-27T11:15:24.186Z,0.50
2022-08-27T11:17:57.851Z,0.52
2022-08-27T11:20:28.413Z,0.50
2022-08-27T11:23:10.041Z,0.50
2022-08-27T11:25:54.766Z,0.50
2022-08-27T11:28:39.722Z,0.50
2022-08-27T11:31:38.192Z,0.55
2022-08-27T11:34:31.808Z,0.60
2022-08-27T11:37:30.545Z,0.70
2022-08-27T11:40:22.890Z,1.20
2022-08-27T11:42:54.392Z,0.40
2022-08-27T11:45:38.450Z,0.70
2022-08-27T11:48:24.655Z,0.50
2022-08-27T11:51:04.320Z,0.60
2022-08-27T11:53:35.160Z,0.47
2022-08-27T11:56:40.268Z,0.50
2022-08-27T11:59:29.386Z,0.60
2022-08-27T12:02:20.258Z,0.90
2022-08-27T12:04:49.625Z,0.70
2022-08-27T12:07:17.504Z,0.60
2022-08-27T12:09:57.735Z,0.47
2022-08-27T12:12:43.711Z,0.55
2022-08-27T12:15:11.181Z,0.45
2022-08-27T12:17:48.895Z,0.77
2022-08-27T12:21:10.786Z,0.63
2022-08-27T12:23:56.309Z,0.55
2022-08-27T12:26:26.583Z,0.50
2022-08-27T12:29:29.595Z,0.60
2022-08-27T12:32:06.436Z,0.50
2022-08-27T12:34:44.947Z,0.50
2022-08-27T12:37:13.197Z,0.85
2022-08-27T12:39:49.291Z,0.57
2022-08-27T12:42:24.322Z,0.43
2022-08-27T12:44:57.053Z,0.50
2022-08-27T12:47:25.334Z,0.63
2022-08-27T12:49:58.054Z,0.57
2022-08-27T12:52:43.679Z,0.63
2022-08-27T12:55:38.954Z,0.50
2022-08-27T12:58:33.473Z,0.50
2022-08-27T13:01:07.097Z,0.40
2022-08-27T13:03:46.238Z,0.40
2022-08-27T13:06:23.061Z,0.50
2022-08-27T13:08:59.254Z,0.57
2022-08-27T13:11:33.518Z,0.50
2022-08-27T13:14:17.689Z,0.57
2022-08-27T13:17:09.768Z,0.50
2022-08-27T13:22:07.152Z,0.52
2022-08-27T13:24:55.909Z,0.50
2022-08-27T13:27:32.726Z,0.40
2022-08-27T13:30:30.888Z,0.63
2022-08-27T13:33:06.165Z,1.20
2022-08-27T13:35:33.813Z,0.60
2022-08-27T13:38:03.379Z,0.40
2022-08-27T13:40:37.593Z,0.40
2022-08-27T13:43:09.097Z,0.50
2022-08-27T13:45:42.487Z,0.50
2022-08-27T13:48:13.403Z,0.50
2022-08-27T13:50:51.943Z,0.63
2022-08-27T13:53:51.123Z,0.50
2022-08-27T13:56:34.097Z,0.60
2022-08-27T13:59:16.236Z,0.70
2022-08-27T14:04:26.169Z,0.70
2022-08-27T14:06:54.739Z,0.50
2022-08-27T14:09:30.323Z,0.60
2022-08-27T14:12:03.383Z,0.30
2022-08-27T14:14:37.069Z,0.30
2022-08-27T14:17:05.537Z,0.60
2022-08-27T14:19:36.718Z,0.47
2022-08-27T14:22:05.019Z,2.10
2022-08-27T14:24:32.528Z,0.35
2022-08-27T14:27:11.246Z,0.50
2022-08-27T14:29:38.885Z,0.70
2022-08-27T14:32:07.341Z,0.40
2022-08-27T14:34:36.079Z,0.40
2022-08-27T14:37:03.910Z,0.40
2022-08-27T14:39:31.905Z,0.40
2022-08-27T14:41:59.804Z,0.50
2022-08-27T14:44:27.466Z,0.95
2022-08-27T14:46:56.394Z,0.63
2022-08-27T14:49:31.852Z,0.68
2022-08-27T14:51:59.592Z,0.35
2022-08-27T14:54:30.532Z,0.30
2022-08-27T14:57:02.300Z,0.40
2022-08-27T14:59:30.351Z,0.22
2022-08-27T15:02:00.162Z,0.40
2022-08-27T15:04:29.085Z,0.40
2022-08-27T15:06:56.950Z,0.40
2022-08-27T15:09:24.786Z,0.70
2022-08-27T15:11:53.699Z,0.38
2022-08-27T15:14:26.330Z,0.35
2022-08-27T15:16:54.855Z,0.40
2022-08-27T15:19:24.348Z,0.50
2022-08-27T15:21:53.042Z,0.35
2022-08-27T15:24:24.480Z,0.82
2022-08-27T15:26:53.989Z,0.70
2022-08-27T15:29:21.679Z,0.70
2022-08-27T15:31:49.329Z,0.52
2022-08-27T15:34:17.372Z,0.50
2022-08-27T15:36:45.090Z,0.52
2022-08-27T15:39:12.843Z,0.68
2022-08-27T15:42:06.251Z,0.63
2022-08-27T15:44:30.026Z,0.57
2022-08-27T15:46:57.683Z,0.40
2022-08-27T15:49:25.367Z,0.57
2022-08-27T15:51:53.240Z,0.43
2022-08-27T15:54:21.871Z,1.10
2022-08-27T15:56:49.403Z,0.52
2022-08-27T15:59:17.057Z,0.95
2022-08-27T16:01:44.838Z,0.77
2022-08-27T16:04:16.654Z,0.50
2022-08-27T16:06:44.651Z,0.63
2022-08-27T16:09:12.265Z,1.25
2022-08-27T16:11:40.891Z,0.77
2022-08-27T16:14:10.619Z,0.70
2022-08-27T16:16:39.339Z,0.60
2022-08-27T16:19:08.601Z,0.60
2022-08-27T16:21:36.671Z,1.02
2022-08-27T16:24:07.657Z,0.50
2022-08-27T16:26:35.385Z,1.20
2022-08-27T16:29:03.711Z,0.63
2022-08-27T16:31:32.858Z,0.60
2022-08-27T16:34:01.297Z,1.00
2022-08-27T16:36:30.449Z,0.60
2022-08-27T16:38:58.277Z,0.75
2022-08-27T16:41:25.787Z,0.80
2022-08-27T16:43:53.411Z,0.90
2022-08-27T16:46:20.998Z,0.90
2022-08-27T16:49:06.935Z,0.95
2022-08-27T16:51:37.559Z,0.70
2022-08-27T16:54:07.895Z,0.80
2022-08-27T16:56:37.861Z,0.90
2022-08-27T16:59:06.188Z,1.15
2022-08-27T17:01:34.236Z,0.65
2022-08-27T17:04:10.179Z,0.75
2022-08-27T17:06:42.405Z,0.80
2022-08-27T17:09:10.846Z,0.98
2022-08-27T17:11:41.875Z,0.70
2022-08-27T17:14:12.181Z,0.77
2022-08-27T17:16:43.330Z,0.75
2022-08-27T17:19:16.748Z,0.60
2022-08-27T17:21:45.618Z,0.80
2022-08-27T17:24:13.819Z,0.80
2022-08-27T17:26:41.411Z,0.70
2022-08-27T17:29:08.939Z,0.88
2022-08-27T17:31:39.086Z,0.70
2022-08-27T17:34:08.217Z,0.77
2022-08-27T17:36:36.043Z,0.50
2022-08-27T17:39:04.750Z,0.50
2022-08-27T17:41:36.610Z,0.70
2022-08-27T17:44:11.850Z,0.55
2022-08-27T17:46:39.451Z,0.80
2022-08-27T17:49:06.957Z,0.70
2022-08-27T17:51:35.986Z,0.77
2022-08-27T17:54:05.972Z,0.82
2022-08-27T17:56:34.453Z,0.82
2022-08-27T17:59:01.940Z,0.90
2022-08-27T18:01:33.125Z,0.80
2022-08-27T18:04:01.268Z,1.00
2022-08-27T18:06:29.404Z,0.90
2022-08-27T18:08:58.299Z,0.70
2022-08-27T18:11:27.304Z,1.10
2022-08-27T18:14:04.572Z,0.82
2022-08-27T18:16:32.817Z,0.73
2022-08-27T18:19:00.437Z,1.10
2022-08-27T18:21:31.499Z,1.45
2022-08-27T18:23:59.065Z,1.30
2022-08-27T18:26:29.843Z,1.10
2022-08-27T18:28:58.086Z,1.85
2022-08-27T18:31:31.113Z,0.93
2022-08-27T18:34:00.136Z,0.90
2022-08-27T18:36:28.880Z,1.00
2022-08-27T18:38:56.733Z,1.10
2022-08-27T18:41:26.416Z,1.05
2022-08-27T18:43:54.046Z,1.67
2022-08-27T18:46:21.818Z,1.00
2022-08-27T18:48:49.457Z,0.88
2022-08-27T18:51:17.901Z,0.90
2022-08-27T18:53:46.425Z,0.70
2022-08-27T18:56:16.624Z,0.88
2022-08-27T18:58:44.774Z,0.88
2022-08-27T19:01:17.869Z,0.90
2022-08-27T19:03:51.614Z,1.25
2022-08-27T19:06:21.355Z,1.00
2022-08-27T19:08:50.347Z,1.10
2022-08-27T19:11:18.290Z,0.88
2022-08-27T19:13:46.229Z,1.00
2022-08-27T19:16:26.333Z,0.93
2022-08-27T19:18:53.888Z,0.90
2022-08-27T19:21:21.405Z,1.25
2022-08-27T19:23:51.333Z,1.05
2022-08-27T19:26:22.173Z,1.20
2022-08-27T19:28:49.774Z,1.00
2022-08-27T19:31:17.649Z,1.25
2022-08-27T19:33:46.359Z,1.30
2022-08-27T19:36:17.166Z,0.93
2022-08-27T19:38:46.427Z,1.35
2022-08-27T19:41:14.298Z,1.27
2022-08-27T19:43:44.778Z,1.77
2022-08-27T19:46:14.868Z,2.55
2022-08-27T19:48:42.382Z,1.30
2022-08-27T19:51:10.119Z,1.10
2022-08-27T19:53:38.174Z,1.65
2022-08-27T19:56:08.287Z,0.90
2022-08-27T19:58:35.940Z,1.35
2022-08-27T20:01:03.525Z,1.63
2022-08-27T20:03:31.089Z,2.17
2022-08-27T20:05:59.626Z,1.10
2022-08-27T20:08:27.260Z,1.08
2022-08-27T20:10:54.834Z,1.13
2022-08-27T20:13:22.373Z,1.20
2022-08-27T20:15:51.537Z,1.52
2022-08-27T20:18:20.019Z,2.20
2022-08-27T20:20:47.573Z,1.63
2022-08-27T20:23:15.673Z,1.77
2022-08-27T20:25:44.702Z,1.45
2022-08-27T20:28:37.684Z,1.90
2022-08-27T20:31:00.090Z,1.77
2022-08-27T20:33:27.938Z,2.13
2022-08-27T20:35:57.782Z,1.50
2022-08-27T20:38:26.128Z,1.73
2022-08-27T20:40:53.644Z,1.63
2022-08-27T20:43:22.724Z,1.75
2022-08-27T20:45:50.506Z,1.33
2022-08-27T20:48:18.893Z,1.58
2022-08-27T20:50:46.491Z,1.20
2022-08-27T20:53:14.013Z,2.45
2022-08-27T20:55:41.798Z,1.77
2022-08-27T20:58:26.862Z,1.65
2022-08-27T21:00:55.663Z,1.80
2022-08-27T21:03:23.810Z,1.35
2022-08-27T21:05:51.636Z,1.30
2022-08-27T21:08:21.737Z,2.90
2022-08-27T21:10:52.557Z,1.77
2022-08-27T21:13:21.424Z,1.73
2022-08-27T21:15:49.843Z,1.40
2022-08-27T21:18:22.266Z,2.05
2022-08-27T21:20:57.525Z,1.92
2022-08-27T21:23:26.768Z,1.67
2022-08-27T21:25:55.509Z,1.20
2022-08-27T21:28:22.984Z,1.67
2022-08-27T21:30:50.523Z,1.95
2022-08-27T21:33:17.993Z,1.40
2022-08-27T21:35:45.510Z,1.35
2022-08-27T21:38:13.132Z,2.38
2022-08-27T21:40:40.825Z,2.25
2022-08-27T21:43:08.368Z,1.67
2022-08-27T21:45:39.167Z,1.65
2022-08-27T21:48:06.657Z,1.75
2022-08-27T21:50:34.158Z,2.00
2022-08-27T21:53:01.792Z,2.25
2022-08-27T21:55:29.321Z,2.10
2022-08-27T21:57:56.879Z,1.48
2022-08-27T22:00:28.054Z,1.95
2022-08-27T22:02:56.548Z,2.85
2022-08-27T22:05:24.657Z,2.13
2022-08-27T22:07:52.338Z,1.95
2022-08-27T22:10:20.141Z,1.98
2022-08-27T22:12:47.626Z,2.42
2022-08-27T22:15:15.213Z,2.60
2022-08-27T22:17:42.824Z,3.40
2022-08-27T22:20:11.006Z,2.30
2022-08-27T22:22:40.093Z,1.92
2022-08-27T22:25:08.359Z,2.53
2022-08-27T22:27:36.173Z,1.70
2022-08-27T22:30:05.745Z,1.90
2022-08-27T22:32:36.027Z,1.98
2022-08-27T22:35:03.558Z,2.00
2022-08-27T22:37:31.090Z,2.30
2022-08-27T22:39:58.733Z,1.95
2022-08-27T22:42:27.131Z,2.42
2022-08-27T22:44:55.097Z,2.30
2022-08-27T22:47:22.658Z,1.48
2022-08-27T22:49:52.930Z,2.63
2022-08-27T22:52:20.724Z,2.08
2022-08-27T22:54:54.774Z,2.08
2022-08-27T22:57:22.690Z,3.15
2022-08-27T22:59:50.352Z,2.47
2022-08-27T23:02:18.669Z,3.28
2022-08-27T23:04:54.928Z,2.80
2022-08-27T23:07:23.548Z,2.10
2022-08-27T23:09:51.127Z,1.90
2022-08-27T23:12:19.866Z,2.67
2022-08-27T23:14:47.499Z,2.13
2022-08-27T23:17:16.055Z,2.75
2022-08-27T23:19:44.302Z,2.58
2022-08-27T23:22:12.413Z,2.10
2022-08-27T23:25:00.384Z,1.65
2022-08-27T23:27:30.279Z,2.67
2022-08-27T23:30:00.406Z,1.98
2022-08-27T23:32:28.817Z,2.00
2022-08-27T23:34:56.950Z,1.90
2022-08-27T23:37:25.171Z,2.55
2022-08-27T23:39:52.879Z,2.85
2022-08-27T23:42:20.685Z,2.83
2022-08-27T23:44:49.450Z,2.30
2022-08-27T23:47:17.642Z,1.90
2022-08-27T23:49:45.216Z,1.77
2022-08-27T23:52:14.047Z,1.88
2022-08-27T23:54:41.973Z,1.75
2022-08-27T23:57:09.461Z,2.92
2022-08-27T23:59:36.982Z,1.98
